Time;durP1;ratioP1;P1;durP2;ratioP2;P2;SDS_P1;SDS_P2;PMS_P1;PMS_P2;Temp;Humidity;BMP_temperature;BMP_pressure;BME280_temperature;BME280_humidity;BME280_pressure;Samples;Min_cycle;Max_cycle;Signal;HPM_P1;HPM_P2
2021/11/04 00:01:02;;;;;;;2.22;0.70;;;;;;;;;;5094642;28;20051;-58
2021/11/04 00:03:27;;;;;;;4.35;0.68;;;;;;;;;;5086733;28;20503;-58
2021/11/04 00:05:53;;;;;;;3.03;0.82;;;;;;;;;;5095970;28;20036;-59
2021/11/04 00:08:20;;;;;;;5.10;0.73;;;;;;;;;;5095770;28;20031;-58
2021/11/04 00:10:46;;;;;;;4.55;0.65;;;;;;;;;;5094351;28;20039;-58
2021/11/04 00:13:12;;;;;;;1.42;0.50;;;;;;;;;;5097960;28;20058;-58
2021/11/04 00:15:38;;;;;;;2.88;0.73;;;;;;;;;;5093941;28;20122;-57
2021/11/04 00:18:04;;;;;;;2.63;0.80;;;;;;;;;;5096806;28;20445;-58
2021/11/04 00:20:30;;;;;;;1.98;0.55;;;;;;;;;;5093127;28;20407;-57
2021/11/04 00:22:56;;;;;;;2.15;0.70;;;;;;;;;;5096138;28;20158;-58
2021/11/04 00:25:22;;;;;;;1.92;0.60;;;;;;;;;;5089969;28;20103;-58
2021/11/04 00:27:49;;;;;;;2.13;0.63;;;;;;;;;;5059215;28;20048;-56
2021/11/04 00:30:15;;;;;;;3.60;0.60;;;;;;;;;;5046514;28;20036;-58
2021/11/04 00:32:46;;;;;;;2.53;0.70;;;;;;;;;;5041441;28;20386;-57
2021/11/04 00:35:12;;;;;;;1.98;0.60;;;;;;;;;;5040860;28;20128;-59
2021/11/04 00:37:38;;;;;;;2.20;0.70;;;;;;;;;;5050972;28;20135;-55
2021/11/04 00:40:05;;;;;;;1.92;0.63;;;;;;;;;;5051138;28;20065;-59
2021/11/04 00:42:31;;;;;;;1.73;0.57;;;;;;;;;;5049634;28;20048;-59
2021/11/04 00:44:57;;;;;;;1.60;0.52;;;;;;;;;;5051074;28;20433;-58
2021/11/04 00:47:23;;;;;;;2.00;0.60;;;;;;;;;;5051100;28;20643;-58
2021/11/04 00:49:49;;;;;;;5.03;0.70;;;;;;;;;;5052374;28;20028;-58
2021/11/04 00:52:15;;;;;;;2.42;0.70;;;;;;;;;;5054049;28;20556;-53
2021/11/04 00:54:41;;;;;;;1.52;0.52;;;;;;;;;;5052548;28;20159;-57
2021/11/04 00:57:07;;;;;;;1.98;0.60;;;;;;;;;;5050112;28;20626;-57
2021/11/04 00:59:33;;;;;;;2.55;0.60;;;;;;;;;;5052105;28;20037;-57
2021/11/04 01:01:58;;;;;;;1.65;0.60;;;;;;;;;;5048673;28;20048;-58
2021/11/04 01:04:24;;;;;;;2.80;0.80;;;;;;;;;;5043575;28;20055;-58
2021/11/04 01:06:50;;;;;;;1.88;0.60;;;;;;;;;;5051733;28;20060;-54
2021/11/04 01:09:16;;;;;;;1.63;0.50;;;;;;;;;;5052357;28;20392;-57
2021/11/04 01:11:42;;;;;;;2.75;0.70;;;;;;;;;;5034621;28;20037;-57
2021/11/04 01:14:08;;;;;;;2.50;0.70;;;;;;;;;;5035261;28;20040;-57
2021/11/04 01:16:34;;;;;;;2.42;0.70;;;;;;;;;;5043064;28;20053;-58
2021/11/04 01:19:00;;;;;;;2.58;0.70;;;;;;;;;;5051414;28;20087;-58
2021/11/04 01:21:25;;;;;;;2.72;0.70;;;;;;;;;;5050255;28;20059;-56
2021/11/04 01:23:51;;;;;;;2.90;0.50;;;;;;;;;;5046580;28;20030;-58
2021/11/04 01:26:17;;;;;;;1.80;0.57;;;;;;;;;;5037350;28;20044;-58
2021/11/04 01:28:44;;;;;;;1.90;0.60;;;;;;;;;;5068050;28;20116;-59
2021/11/04 01:31:10;;;;;;;2.83;0.70;;;;;;;;;;5077353;28;20079;-58
2021/11/04 01:33:36;;;;;;;3.60;0.75;;;;;;;;;;5088974;28;20067;-58
2021/11/04 01:36:02;;;;;;;1.50;0.50;;;;;;;;;;5086621;28;20067;-57
2021/11/04 01:38:28;;;;;;;1.13;0.50;;;;;;;;;;5093336;28;20031;-59
2021/11/04 01:40:53;;;;;;;1.98;0.60;;;;;;;;;;5091673;28;20078;-60
2021/11/04 01:43:19;;;;;;;2.35;0.60;;;;;;;;;;5092988;28;20093;-57
2021/11/04 01:45:48;;;;;;;7.68;0.80;;;;;;;;;;5090619;28;20028;-59
2021/11/04 01:48:14;;;;;;;1.83;0.60;;;;;;;;;;5092164;28;20038;-58
2021/11/04 01:50:39;;;;;;;3.33;0.70;;;;;;;;;;5092402;28;20032;-57
2021/11/04 01:53:05;;;;;;;2.85;0.70;;;;;;;;;;5090911;28;20389;-58
2021/11/04 01:55:31;;;;;;;1.60;0.60;;;;;;;;;;5091722;28;20035;-56
2021/11/04 01:57:57;;;;;;;2.00;0.55;;;;;;;;;;5089096;28;20078;-59
2021/11/04 02:00:24;;;;;;;2.60;0.73;;;;;;;;;;5089974;28;20070;-53
2021/11/04 02:03:09;;;;;;;1.92;0.60;;;;;;;;;;5092149;28;20557;-57
2021/11/04 02:05:39;;;;;;;1.77;0.63;;;;;;;;;;5086992;28;20122;-58
2021/11/04 02:08:12;;;;;;;1.40;0.50;;;;;;;;;;5092803;28;20075;-57
2021/11/04 02:10:42;;;;;;;1.73;0.63;;;;;;;;;;5091750;28;20039;-58
2021/11/04 02:13:16;;;;;;;2.67;0.60;;;;;;;;;;5091719;28;20035;-56
2021/11/04 02:15:43;;;;;;;2.70;0.68;;;;;;;;;;5090970;28;21916;-58
2021/11/04 02:18:10;;;;;;;2.60;0.60;;;;;;;;;;5091559;28;20051;-57
2021/11/04 02:20:42;;;;;;;3.78;0.60;;;;;;;;;;5092889;28;20105;-59
2021/11/04 02:23:17;;;;;;;2.00;0.57;;;;;;;;;;5090703;28;20039;-58
2021/11/04 02:25:45;;;;;;;1.85;0.55;;;;;;;;;;5088977;28;20036;-56
2021/11/04 02:28:13;;;;;;;1.40;0.50;;;;;;;;;;5093973;28;20992;-59
2021/11/04 02:30:39;;;;;;;1.38;0.50;;;;;;;;;;5094392;28;20334;-58
2021/11/04 02:33:07;;;;;;;1.23;0.50;;;;;;;;;;5094266;28;20044;-59
2021/11/04 02:35:33;;;;;;;2.20;0.50;;;;;;;;;;5092155;28;20073;-59
2021/11/04 02:37:59;;;;;;;1.63;0.50;;;;;;;;;;5095724;28;20035;-58
2021/11/04 02:40:25;;;;;;;2.03;0.63;;;;;;;;;;5094657;28;20115;-57
2021/11/04 02:42:51;;;;;;;1.73;0.52;;;;;;;;;;5097985;28;20417;-57
2021/11/04 02:45:22;;;;;;;2.65;0.63;;;;;;;;;;5095567;28;20039;-59
2021/11/04 02:47:48;;;;;;;2.10;0.60;;;;;;;;;;5096640;28;20596;-57
2021/11/04 02:50:16;;;;;;;2.85;0.60;;;;;;;;;;5097108;28;20134;-57
2021/11/04 02:52:42;;;;;;;1.92;0.60;;;;;;;;;;5093925;28;20027;-56
2021/11/04 02:55:08;;;;;;;2.88;0.63;;;;;;;;;;5094100;28;20036;-55
2021/11/04 02:57:44;;;;;;;2.05;0.60;;;;;;;;;;5096140;28;20039;-58
2021/11/04 03:00:11;;;;;;;2.45;0.70;;;;;;;;;;5095952;28;20062;-56
2021/11/04 03:02:36;;;;;;;1.50;0.50;;;;;;;;;;5094515;28;20535;-57
2021/11/04 03:05:03;;;;;;;3.00;0.65;;;;;;;;;;5095313;28;20067;-57
2021/11/04 03:07:28;;;;;;;2.28;0.60;;;;;;;;;;5076527;28;20101;-59
2021/11/04 03:09:54;;;;;;;1.25;0.50;;;;;;;;;;5076192;28;20854;-58
2021/11/04 03:12:20;;;;;;;1.45;0.60;;;;;;;;;;5095473;28;20134;-58
2021/11/04 03:14:47;;;;;;;2.10;0.60;;;;;;;;;;5091035;28;20039;-58
2021/11/04 03:17:13;;;;;;;2.92;0.80;;;;;;;;;;5094006;28;20040;-57
2021/11/04 03:19:40;;;;;;;4.22;0.70;;;;;;;;;;5095443;28;20039;-56
2021/11/04 03:22:06;;;;;;;2.30;0.70;;;;;;;;;;5096291;28;20078;-58
2021/11/04 03:24:32;;;;;;;3.15;0.60;;;;;;;;;;5095000;28;20432;-58
2021/11/04 03:27:03;;;;;;;1.45;0.57;;;;;;;;;;5072833;28;20589;-58
2021/11/04 03:29:34;;;;;;;1.90;0.60;;;;;;;;;;5094693;28;20055;-58
2021/11/04 03:32:01;;;;;;;1.70;0.60;;;;;;;;;;5094422;28;20038;-57
2021/11/04 03:34:27;;;;;;;1.42;0.50;;;;;;;;;;5095118;28;20070;-54
2021/11/04 03:36:53;;;;;;;1.45;0.57;;;;;;;;;;5097609;28;20291;-57
2021/11/04 03:39:20;;;;;;;2.60;0.70;;;;;;;;;;5092396;28;20108;-57
2021/11/04 03:41:48;;;;;;;2.67;0.60;;;;;;;;;;5092347;28;20078;-58
2021/11/04 03:44:15;;;;;;;1.73;0.50;;;;;;;;;;5093849;28;20118;-59
2021/11/04 03:46:44;;;;;;;2.05;0.60;;;;;;;;;;5094482;28;20828;-58
2021/11/04 03:49:14;;;;;;;1.42;0.50;;;;;;;;;;5091488;28;20036;-57
2021/11/04 03:51:40;;;;;;;1.67;0.65;;;;;;;;;;5096109;28;20153;-56
2021/11/04 03:54:07;;;;;;;2.03;0.60;;;;;;;;;;5075414;28;20034;-56
2021/11/04 03:56:33;;;;;;;1.35;0.52;;;;;;;;;;5092897;28;20124;-57
2021/11/04 03:58:59;;;;;;;1.88;0.57;;;;;;;;;;5094416;28;20032;-57
2021/11/04 04:01:25;;;;;;;1.83;0.50;;;;;;;;;;5091427;28;20062;-56
2021/11/04 04:03:51;;;;;;;1.55;0.50;;;;;;;;;;5094997;28;20370;-59
2021/11/04 04:06:21;;;;;;;1.23;0.40;;;;;;;;;;5094648;28;20092;-55
2021/11/04 04:08:47;;;;;;;0.82;0.40;;;;;;;;;;5093203;28;20526;-57
2021/11/04 04:11:14;;;;;;;2.17;0.57;;;;;;;;;;5092590;28;20088;-58
2021/11/04 04:13:40;;;;;;;2.20;0.60;;;;;;;;;;5091853;28;20084;-58
2021/11/04 04:16:06;;;;;;;2.70;0.60;;;;;;;;;;5091666;28;20040;-57
2021/11/04 04:18:32;;;;;;;1.48;0.52;;;;;;;;;;5091105;28;20101;-58
2021/11/04 04:20:58;;;;;;;2.05;0.60;;;;;;;;;;5092883;28;20054;-57
2021/11/04 04:23:25;;;;;;;1.60;0.60;;;;;;;;;;5092610;28;20032;-58
2021/11/04 04:25:51;;;;;;;1.67;0.57;;;;;;;;;;5092546;28;20036;-58
2021/11/04 04:28:17;;;;;;;2.20;0.60;;;;;;;;;;5091230;28;20058;-58
2021/11/04 04:30:42;;;;;;;1.70;0.55;;;;;;;;;;5091587;28;20372;-55
2021/11/04 04:33:09;;;;;;;5.03;0.75;;;;;;;;;;5093034;28;20186;-56
2021/11/04 04:35:34;;;;;;;2.33;0.70;;;;;;;;;;5093299;28;20044;-60
2021/11/04 04:38:00;;;;;;;1.63;0.50;;;;;;;;;;5092005;28;20085;-59
2021/11/04 04:40:26;;;;;;;1.98;0.60;;;;;;;;;;5093031;28;20032;-56
2021/11/04 04:42:52;;;;;;;2.45;0.68;;;;;;;;;;5090432;28;20127;-57
2021/11/04 04:45:18;;;;;;;1.00;0.50;;;;;;;;;;5091803;28;20132;-56
2021/11/04 04:47:44;;;;;;;1.60;0.60;;;;;;;;;;5092815;28;20404;-57
2021/11/04 04:50:10;;;;;;;2.20;0.50;;;;;;;;;;5093367;28;20036;-59
2021/11/04 04:52:37;;;;;;;2.50;0.80;;;;;;;;;;5093041;28;20035;-59
2021/11/04 04:55:03;;;;;;;1.63;0.60;;;;;;;;;;5092674;28;21049;-59
2021/11/04 04:57:29;;;;;;;1.80;0.52;;;;;;;;;;5093120;28;20123;-60
2021/11/04 04:59:57;;;;;;;2.83;0.80;;;;;;;;;;5070172;28;20036;-58
2021/11/04 05:02:23;;;;;;;2.40;0.80;;;;;;;;;;5094071;28;20039;-58
2021/11/04 05:04:49;;;;;;;2.55;0.75;;;;;;;;;;5072268;28;20037;-58
2021/11/04 05:07:15;;;;;;;2.33;0.60;;;;;;;;;;5093924;28;20040;-59
2021/11/04 05:09:41;;;;;;;2.60;0.73;;;;;;;;;;5090983;28;20075;-57
2021/11/04 05:12:07;;;;;;;2.00;0.70;;;;;;;;;;5092619;28;20126;-59
2021/11/04 05:14:33;;;;;;;2.85;0.70;;;;;;;;;;5089228;28;20051;-56
2021/11/04 05:16:59;;;;;;;1.70;0.63;;;;;;;;;;5089481;28;20093;-58
2021/11/04 05:19:24;;;;;;;1.88;0.57;;;;;;;;;;5091048;28;20052;-57
2021/11/04 05:21:50;;;;;;;2.35;0.70;;;;;;;;;;5087350;28;20138;-58
2021/11/04 05:24:16;;;;;;;3.03;0.70;;;;;;;;;;5090065;28;20039;-57
2021/11/04 05:26:42;;;;;;;2.33;0.60;;;;;;;;;;5090292;28;20043;-58
2021/11/04 05:29:08;;;;;;;1.55;0.60;;;;;;;;;;5090121;28;20055;-58
2021/11/04 05:31:34;;;;;;;1.90;0.60;;;;;;;;;;5072486;28;20051;-58
2021/11/04 05:34:00;;;;;;;2.22;0.73;;;;;;;;;;5090743;28;20031;-57
2021/11/04 05:36:26;;;;;;;1.88;0.60;;;;;;;;;;5091020;28;20080;-59
2021/11/04 05:38:53;;;;;;;2.00;0.63;;;;;;;;;;5092409;28;20044;-58
2021/11/04 05:41:19;;;;;;;1.38;0.52;;;;;;;;;;5091221;28;20603;-59
2021/11/04 05:43:45;;;;;;;1.17;0.50;;;;;;;;;;5090382;28;20055;-58
2021/11/04 05:46:12;;;;;;;2.58;0.80;;;;;;;;;;5090774;28;20108;-58
2021/11/04 05:48:37;;;;;;;2.50;0.68;;;;;;;;;;5066864;28;20047;-57
2021/11/04 05:51:04;;;;;;;2.47;0.65;;;;;;;;;;5090401;28;20071;-53
2021/11/04 05:53:29;;;;;;;2.67;0.70;;;;;;;;;;5090834;28;20121;-57
2021/11/04 05:55:55;;;;;;;1.30;0.52;;;;;;;;;;5089375;28;20100;-58
2021/11/04 05:58:21;;;;;;;1.60;0.52;;;;;;;;;;5090148;28;20031;-56
2021/11/04 06:00:47;;;;;;;1.45;0.55;;;;;;;;;;5089331;28;20044;-57
2021/11/04 06:03:13;;;;;;;1.60;0.60;;;;;;;;;;5073495;28;20035;-56
2021/11/04 06:05:40;;;;;;;2.38;0.70;;;;;;;;;;5088418;28;21011;-57
2021/11/04 06:08:06;;;;;;;1.88;0.63;;;;;;;;;;5090910;28;20036;-56
2021/11/04 06:10:32;;;;;;;2.15;0.60;;;;;;;;;;5088938;28;20036;-55
2021/11/04 06:12:57;;;;;;;2.10;0.60;;;;;;;;;;5092077;28;20121;-57
2021/11/04 06:15:23;;;;;;;2.03;0.70;;;;;;;;;;5088973;28;20040;-56
2021/11/04 06:17:49;;;;;;;4.88;0.70;;;;;;;;;;5090226;28;20253;-57
2021/11/04 06:20:15;;;;;;;1.77;0.60;;;;;;;;;;5092772;28;20036;-55
2021/11/04 06:22:41;;;;;;;2.13;0.70;;;;;;;;;;5091038;28;20498;-58
2021/11/04 06:25:07;;;;;;;2.13;0.70;;;;;;;;;;5090609;28;20343;-55
2021/11/04 06:27:33;;;;;;;4.38;0.75;;;;;;;;;;5091825;28;20158;-60
2021/11/04 06:29:59;;;;;;;3.22;0.85;;;;;;;;;;5072428;28;20047;-59
2021/11/04 06:32:25;;;;;;;1.90;0.55;;;;;;;;;;5091549;28;22444;-59
2021/11/04 06:34:51;;;;;;;3.58;0.65;;;;;;;;;;5090664;28;20067;-58
2021/11/04 06:37:16;;;;;;;2.88;0.80;;;;;;;;;;5094287;28;20039;-57
2021/11/04 06:39:42;;;;;;;2.40;0.70;;;;;;;;;;5090761;28;20036;-57
2021/11/04 06:42:08;;;;;;;2.47;0.73;;;;;;;;;;5091702;28;20203;-57
2021/11/04 06:44:34;;;;;;;1.98;0.68;;;;;;;;;;5087338;28;20457;-58
2021/11/04 06:47:01;;;;;;;2.92;0.77;;;;;;;;;;5092040;28;20028;-58
2021/11/04 06:49:28;;;;;;;1.85;0.57;;;;;;;;;;5071260;28;20385;-59
2021/11/04 06:51:55;;;;;;;2.22;0.70;;;;;;;;;;5090542;28;20040;-57
2021/11/04 06:54:23;;;;;;;2.22;0.75;;;;;;;;;;5091241;28;20730;-58
2021/11/04 06:56:50;;;;;;;2.67;0.70;;;;;;;;;;5091632;28;20045;-57
2021/11/04 06:59:24;;;;;;;2.30;0.80;;;;;;;;;;5093689;28;20039;-58
2021/11/04 07:01:50;;;;;;;;;;;;;;;;;;5091039;28;20051;-54
2021/11/04 07:04:20;;;;;;;2.28;0.60;;;;;;;;;;5072264;28;20368;-56
2021/11/04 07:06:48;;;;;;;1.65;0.50;;;;;;;;;;5091672;28;20040;-57
2021/11/04 07:09:14;;;;;;;1.58;0.60;;;;;;;;;;5090567;28;20044;-55
2021/11/04 07:11:40;;;;;;;2.50;0.70;;;;;;;;;;5090669;28;20051;-56
2021/11/04 07:14:06;;;;;;;2.55;0.80;;;;;;;;;;5093414;28;20089;-56
2021/11/04 07:16:32;;;;;;;2.08;0.85;;;;;;;;;;5093483;28;20394;-57
2021/11/04 07:18:59;;;;;;;1.98;0.65;;;;;;;;;;5097209;28;20067;-57
2021/11/04 07:21:35;;;;;;;2.38;0.70;;;;;;;;;;5093300;28;20043;-55
2021/11/04 07:24:05;;;;;;;2.10;0.63;;;;;;;;;;5075961;28;20070;-57
2021/11/04 07:26:35;;;;;;;1.95;0.60;;;;;;;;;;5092640;28;20192;-57
2021/11/04 07:29:02;;;;;;;1.08;0.50;;;;;;;;;;5093429;28;20043;-56
2021/11/04 07:31:28;;;;;;;1.65;0.60;;;;;;;;;;5094003;28;20040;-57
2021/11/04 07:33:54;;;;;;;1.40;0.50;;;;;;;;;;5093660;28;20076;-56
2021/11/04 07:36:20;;;;;;;4.55;0.60;;;;;;;;;;5094019;28;20054;-56
2021/11/04 07:38:47;;;;;;;1.52;0.50;;;;;;;;;;5095658;28;20040;-58
2021/11/04 07:41:13;;;;;;;2.30;0.80;;;;;;;;;;5095674;28;20479;-58
2021/11/04 07:43:39;;;;;;;1.17;0.50;;;;;;;;;;5074565;28;20373;-58
2021/11/04 07:46:05;;;;;;;1.90;0.70;;;;;;;;;;5094254;28;20035;-58
2021/11/04 07:48:31;;;;;;;1.88;0.60;;;;;;;;;;5094300;28;20043;-57
2021/11/04 07:50:57;;;;;;;2.63;0.70;;;;;;;;;;5093356;28;20065;-57
2021/11/04 07:53:24;;;;;;;2.60;0.82;;;;;;;;;;5093586;28;20043;-59
2021/11/04 07:55:50;;;;;;;2.90;0.70;;;;;;;;;;5094662;28;20040;-58
2021/11/04 07:58:16;;;;;;;2.72;0.70;;;;;;;;;;5093747;28;20757;-57
2021/11/04 08:00:43;;;;;;;5.07;0.90;;;;;;;;;;5094894;28;20043;-55
2021/11/04 08:03:09;;;;;;;2.50;0.68;;;;;;;;;;5093540;28;20044;-58
2021/11/04 08:05:35;;;;;;;4.20;0.73;;;;;;;;;;5093114;28;20043;-58
2021/11/04 08:08:01;;;;;;;1.83;0.60;;;;;;;;;;5095696;28;20575;-58
2021/11/04 08:10:27;;;;;;;2.63;0.70;;;;;;;;;;5092727;28;20143;-57
2021/11/04 08:12:53;;;;;;;3.72;0.70;;;;;;;;;;5092291;28;20042;-58
2021/11/04 08:15:19;;;;;;;2.13;0.63;;;;;;;;;;5091192;28;20048;-57
2021/11/04 08:17:45;;;;;;;2.53;0.80;;;;;;;;;;5093633;28;20148;-57
2021/11/04 08:20:11;;;;;;;3.22;0.80;;;;;;;;;;5095085;28;20578;-58
2021/11/04 08:22:37;;;;;;;3.42;0.80;;;;;;;;;;5093380;28;20115;-59
2021/11/04 08:25:04;;;;;;;3.70;0.98;;;;;;;;;;5091127;28;20039;-59
2021/11/04 08:27:31;;;;;;;2.90;0.88;;;;;;;;;;5091943;28;20039;-59
2021/11/04 08:29:57;;;;;;;1.60;0.60;;;;;;;;;;5095715;28;20063;-58
2021/11/04 08:32:23;;;;;;;2.90;1.02;;;;;;;;;;5090291;28;20067;-56
2021/11/04 08:34:48;;;;;;;3.25;0.93;;;;;;;;;;5092694;28;20313;-57
2021/11/04 08:37:14;;;;;;;3.75;1.00;;;;;;;;;;5074606;28;20386;-53
2021/11/04 08:39:40;;;;;;;2.85;0.80;;;;;;;;;;5096091;28;20043;-57
2021/11/04 08:42:06;;;;;;;2.72;0.90;;;;;;;;;;5091535;28;20056;-58
2021/11/04 08:44:32;;;;;;;3.53;1.00;;;;;;;;;;5090418;28;20097;-56
2021/11/04 08:46:59;;;;;;;2.35;0.80;;;;;;;;;;5092021;28;20047;-56
2021/11/04 08:49:25;;;;;;;1.98;0.70;;;;;;;;;;5092592;28;20112;-54
2021/11/04 08:51:54;;;;;;;2.67;0.88;;;;;;;;;;5093223;28;20040;-58
2021/11/04 08:54:24;;;;;;;2.55;0.82;;;;;;;;;;5092689;28;20104;-58
2021/11/04 08:56:50;;;;;;;2.40;0.80;;;;;;;;;;5096427;28;20101;-58
2021/11/04 08:59:15;;;;;;;2.30;0.70;;;;;;;;;;5095195;28;20096;-57
2021/11/04 09:01:43;;;;;;;4.50;1.10;;;;;;;;;;5094773;28;20132;-58
2021/11/04 09:04:09;;;;;;;1.92;0.73;;;;;;;;;;5094856;28;20130;-58
2021/11/04 09:06:35;;;;;;;2.50;0.80;;;;;;;;;;5094277;28;20126;-57
2021/11/04 09:09:02;;;;;;;3.33;0.73;;;;;;;;;;5095143;28;20706;-57
2021/11/04 09:11:29;;;;;;;3.80;0.90;;;;;;;;;;5090537;28;20678;-58
2021/11/04 09:13:54;;;;;;;3.83;0.80;;;;;;;;;;5092198;28;20071;-57
2021/11/04 09:16:20;;;;;;;2.38;0.85;;;;;;;;;;5089488;28;20491;-56
2021/11/04 09:18:47;;;;;;;3.10;1.05;;;;;;;;;;5091789;28;20051;-56
2021/11/04 09:21:12;;;;;;;4.03;1.30;;;;;;;;;;5092207;28;20096;-57
2021/11/04 09:23:38;;;;;;;2.33;0.80;;;;;;;;;;5089361;28;20033;-56
2021/11/04 09:26:04;;;;;;;4.35;1.17;;;;;;;;;;5091262;28;20036;-55
2021/11/04 09:28:30;;;;;;;2.55;0.95;;;;;;;;;;5091247;28;20142;-55
2021/11/04 09:30:56;;;;;;;2.53;0.60;;;;;;;;;;5089804;28;20032;-56
2021/11/04 09:33:22;;;;;;;2.30;0.80;;;;;;;;;;5088586;28;20062;-57
2021/11/04 09:35:49;;;;;;;2.35;0.70;;;;;;;;;;5089384;28;20035;-58
2021/11/04 09:38:15;;;;;;;1.73;0.70;;;;;;;;;;5090602;28;20036;-56
2021/11/04 09:40:41;;;;;;;2.95;0.88;;;;;;;;;;5091971;28;20042;-58
2021/11/04 09:43:07;;;;;;;4.32;0.80;;;;;;;;;;5092571;28;20450;-57
2021/11/04 09:45:33;;;;;;;2.90;1.10;;;;;;;;;;5090724;28;20040;-58
2021/11/04 09:47:59;;;;;;;4.45;1.00;;;;;;;;;;5092166;28;20514;-58
2021/11/04 09:50:25;;;;;;;3.10;1.00;;;;;;;;;;5090032;28;20109;-57
2021/11/04 09:52:55;;;;;;;2.70;0.75;;;;;;;;;;5094025;28;20649;-55
2021/11/04 09:55:28;;;;;;;2.38;0.80;;;;;;;;;;5092161;28;20108;-58
2021/11/04 09:57:56;;;;;;;2.85;0.80;;;;;;;;;;5093204;28;20078;-56
2021/11/04 10:00:30;;;;;;;2.40;0.88;;;;;;;;;;5093249;28;20032;-57
2021/11/04 10:02:55;;;;;;;;;;;;;;;;;;5092208;28;20104;-58
2021/11/04 10:05:21;;;;;;;4.32;0.90;;;;;;;;;;5087153;28;19916;-59
2021/11/04 10:07:48;;;;;;;2.33;0.80;;;;;;;;;;5091889;28;20138;-57
2021/11/04 10:10:16;;;;;;;7.20;0.90;;;;;;;;;;5089109;28;20039;-58
2021/11/04 10:12:57;;;;;;;2.78;0.85;;;;;;;;;;5090380;28;20044;-58
2021/11/04 10:15:23;;;;;;;2.45;0.70;;;;;;;;;;5089928;28;20413;-58
2021/11/04 10:17:49;;;;;;;4.20;1.00;;;;;;;;;;5086506;28;20125;-57
2021/11/04 10:20:15;;;;;;;2.50;0.90;;;;;;;;;;5091960;28;20123;-58
2021/11/04 10:22:41;;;;;;;2.78;0.80;;;;;;;;;;5090036;28;20056;-57
2021/11/04 10:25:20;;;;;;;2.15;0.75;;;;;;;;;;5091047;28;20036;-58
2021/11/04 10:27:46;;;;;;;2.20;0.65;;;;;;;;;;5091298;28;20060;-59
2021/11/04 10:30:31;;;;;;;1.70;0.63;;;;;;;;;;5093191;28;20604;-58
2021/11/04 10:32:57;;;;;;;2.15;0.70;;;;;;;;;;5089149;28;20491;-58
2021/11/04 10:35:30;;;;;;;2.10;0.80;;;;;;;;;;5081077;28;20044;-57
2021/11/04 10:38:00;;;;;;;2.45;0.70;;;;;;;;;;5085955;28;20074;-58
2021/11/04 10:40:26;;;;;;;3.72;0.90;;;;;;;;;;5087671;28;20696;-58
2021/11/04 10:42:58;;;;;;;3.15;0.90;;;;;;;;;;5092399;28;20092;-57
2021/11/04 10:45:25;;;;;;;1.97;0.73;;;;;;;;;;5089763;28;20068;-55
2021/11/04 10:48:11;;;;;;;2.78;0.60;;;;;;;;;;5090989;28;20067;-58
2021/11/04 10:50:41;;;;;;;2.55;0.80;;;;;;;;;;5076942;28;20036;-56
2021/11/04 10:53:07;;;;;;;2.28;0.90;;;;;;;;;;5095243;28;20071;-58
2021/11/04 10:55:33;;;;;;;2.63;0.80;;;;;;;;;;5092308;28;20174;-56
2021/11/04 10:58:05;;;;;;;2.05;0.77;;;;;;;;;;5095342;28;20074;-59
2021/11/04 11:00:31;;;;;;;2.35;0.77;;;;;;;;;;5093425;28;20039;-58
2021/11/04 11:02:57;;;;;;;2.28;0.70;;;;;;;;;;5093579;28;20052;-57
2021/11/04 11:05:43;;;;;;;1.23;0.55;;;;;;;;;;5092424;28;20059;-58
2021/11/04 11:08:09;;;;;;;3.10;0.82;;;;;;;;;;5093834;28;20059;-58
2021/11/04 11:10:38;;;;;;;2.33;0.88;;;;;;;;;;5094413;28;20120;-56
2021/11/04 11:13:05;;;;;;;3.50;0.98;;;;;;;;;;5093572;28;20040;-56
2021/11/04 11:15:35;;;;;;;4.35;0.80;;;;;;;;;;5093268;28;20449;-59
2021/11/04 11:18:03;;;;;;;3.17;0.90;;;;;;;;;;5092957;28;20051;-56
2021/11/04 11:20:29;;;;;;;2.80;1.10;;;;;;;;;;5090253;28;20040;-54
2021/11/04 11:22:55;;;;;;;5.00;1.30;;;;;;;;;;5094228;28;20085;-58
2021/11/04 11:25:21;;;;;;;3.03;1.10;;;;;;;;;;5072750;28;20047;-58
2021/11/04 11:27:50;;;;;;;2.72;1.00;;;;;;;;;;5094500;28;20100;-56
2021/11/04 11:30:16;;;;;;;2.95;1.00;;;;;;;;;;5092855;28;20472;-59
2021/11/04 11:32:44;;;;;;;4.18;1.40;;;;;;;;;;5092411;28;20039;-56
2021/11/04 11:35:20;;;;;;;5.07;1.20;;;;;;;;;;5092868;28;20036;-57
2021/11/04 11:37:57;;;;;;;4.22;1.15;;;;;;;;;;5093071;28;20898;-58
2021/11/04 11:40:24;;;;;;;4.85;1.25;;;;;;;;;;5093449;28;20520;-56
2021/11/04 11:42:56;;;;;;;3.53;1.40;;;;;;;;;;5092613;28;20357;-58
2021/11/04 11:45:22;;;;;;;4.22;1.40;;;;;;;;;;5094537;28;20036;-58
2021/11/04 11:47:48;;;;;;;3.10;1.25;;;;;;;;;;5094946;28;20569;-54
2021/11/04 11:50:29;;;;;;;3.75;1.25;;;;;;;;;;5093321;28;21510;-58
2021/11/04 11:52:56;;;;;;;3.70;1.30;;;;;;;;;;5092604;28;21027;-54
2021/11/04 11:55:24;;;;;;;4.65;1.38;;;;;;;;;;5092507;28;20031;-55
2021/11/04 11:58:08;;;;;;;4.03;1.40;;;;;;;;;;5092893;28;20043;-58
2021/11/04 12:00:57;;;;;;;3.55;1.40;;;;;;;;;;5093887;28;20051;-57
2021/11/04 12:03:32;;;;;;;4.65;1.52;;;;;;;;;;5080166;28;20042;-56
2021/11/04 12:05:58;;;;;;;3.88;1.52;;;;;;;;;;5091704;28;20422;-56
2021/11/04 12:08:27;;;;;;;3.53;1.35;;;;;;;;;;5090668;28;20377;-57
2021/11/04 12:10:53;;;;;;;4.22;1.48;;;;;;;;;;5089661;28;20035;-58
2021/11/04 12:13:35;;;;;;;3.88;1.63;;;;;;;;;;5091619;28;20038;-55
2021/11/04 12:16:07;;;;;;;6.57;1.58;;;;;;;;;;5091247;28;20047;-57
2021/11/04 12:18:33;;;;;;;3.95;1.48;;;;;;;;;;5090323;28;20039;-58
2021/11/04 12:20:59;;;;;;;7.47;1.60;;;;;;;;;;5074116;28;20039;-57
2021/11/04 12:23:33;;;;;;;4.88;1.40;;;;;;;;;;5091643;28;20040;-59
2021/11/04 12:25:58;;;;;;;4.43;1.42;;;;;;;;;;5091546;28;20044;-58
2021/11/04 12:28:24;;;;;;;3.45;1.67;;;;;;;;;;5073540;28;20140;-58
2021/11/04 12:30:50;;;;;;;7.97;1.83;;;;;;;;;;5090938;28;20900;-58
2021/11/04 12:33:16;;;;;;;4.28;1.60;;;;;;;;;;5093322;28;20042;-58
2021/11/04 12:35:51;;;;;;;4.82;1.73;;;;;;;;;;5086428;28;20116;-58
2021/11/04 12:38:23;;;;;;;9.70;1.40;;;;;;;;;;5093343;28;20114;-58
2021/11/04 12:41:03;;;;;;;4.03;1.65;;;;;;;;;;5091369;28;20027;-59
2021/11/04 12:43:31;;;;;;;8.43;1.58;;;;;;;;;;5091616;28;20051;-56
2021/11/04 12:46:10;;;;;;;6.75;2.20;;;;;;;;;;5069739;28;20033;-59
2021/11/04 12:48:43;;;;;;;3.47;1.48;;;;;;;;;;5091870;28;20042;-59
2021/11/04 12:51:09;;;;;;;15.38;7.55;;;;;;;;;;5092433;28;20402;-58
2021/11/04 12:53:55;;;;;;;6.35;3.00;;;;;;;;;;5091442;28;20046;-58
2021/11/04 12:56:37;;;;;;;4.55;1.92;;;;;;;;;;5089914;28;20515;-56
2021/11/04 12:59:02;;;;;;;5.00;1.88;;;;;;;;;;5090418;28;20483;-58
2021/11/04 13:01:28;;;;;;;4.80;1.98;;;;;;;;;;5091164;28;20039;-58
2021/11/04 13:03:54;;;;;;;5.15;2.03;;;;;;;;;;5091984;28;20036;-59
2021/11/04 13:06:22;;;;;;;4.75;1.83;;;;;;;;;;5092374;28;20036;-57
2021/11/04 13:08:48;;;;;;;5.07;2.08;;;;;;;;;;5089907;28;20048;-58
2021/11/04 13:11:15;;;;;;;4.22;1.85;;;;;;;;;;5093139;28;20047;-59
2021/11/04 13:14:01;;;;;;;3.53;1.65;;;;;;;;;;5092168;28;20092;-57
2021/11/04 13:16:28;;;;;;;4.95;2.00;;;;;;;;;;5092774;28;20096;-58
2021/11/04 13:18:54;;;;;;;4.45;1.67;;;;;;;;;;5091482;28;20064;-58
2021/11/04 13:21:22;;;;;;;4.53;1.77;;;;;;;;;;5091418;28;20040;-55
2021/11/04 13:23:48;;;;;;;9.38;1.88;;;;;;;;;;5091302;28;20515;-58
2021/11/04 13:26:13;;;;;;;9.30;1.70;;;;;;;;;;5090826;28;20047;-59
2021/11/04 13:28:40;;;;;;;4.82;1.83;;;;;;;;;;5090075;28;20072;-57
2021/11/04 13:31:09;;;;;;;6.60;2.03;;;;;;;;;;5093210;28;20138;-57
2021/11/04 13:33:38;;;;;;;5.35;1.98;;;;;;;;;;5085059;28;20100;-58
2021/11/04 13:36:06;;;;;;;5.93;1.83;;;;;;;;;;5092132;28;20044;-56
2021/11/04 13:38:33;;;;;;;4.85;2.08;;;;;;;;;;5091576;28;20035;-58
2021/11/04 13:41:05;;;;;;;6.32;2.00;;;;;;;;;;5093185;28;20117;-58
2021/11/04 13:43:35;;;;;;;4.60;1.67;;;;;;;;;;5089325;28;20067;-58
2021/11/04 13:46:06;;;;;;;5.20;1.70;;;;;;;;;;5092401;28;20057;-58
2021/11/04 13:48:32;;;;;;;5.50;1.80;;;;;;;;;;5091431;28;20040;-59
2021/11/04 13:50:58;;;;;;;10.27;2.30;;;;;;;;;;5091143;28;20253;-58
2021/11/04 13:53:24;;;;;;;5.80;2.05;;;;;;;;;;5090230;28;20035;-59
2021/11/04 13:55:54;;;;;;;10.45;2.55;;;;;;;;;;5073136;28;20074;-58
2021/11/04 13:58:38;;;;;;;7.63;2.38;;;;;;;;;;5090096;28;20084;-58
2021/11/04 14:01:05;;;;;;;3.88;1.70;;;;;;;;;;5069218;28;20042;-53
2021/11/04 14:03:31;;;;;;;6.53;2.38;;;;;;;;;;5089247;28;20113;-58
2021/11/04 14:05:59;;;;;;;6.05;2.38;;;;;;;;;;5090319;28;20047;-60
2021/11/04 14:08:39;;;;;;;6.40;1.98;;;;;;;;;;5070070;28;20031;-59
2021/11/04 14:11:11;;;;;;;5.47;2.30;;;;;;;;;;5093334;28;20521;-57
2021/11/04 14:13:57;;;;;;;6.90;2.30;;;;;;;;;;5088501;28;20172;-57
2021/11/04 14:16:24;;;;;;;4.90;2.13;;;;;;;;;;5091501;28;20336;-57
2021/11/04 14:18:50;;;;;;;9.05;2.30;;;;;;;;;;5091868;28;20043;-58
2021/11/04 14:21:16;;;;;;;5.15;2.30;;;;;;;;;;5093296;28;20059;-57
2021/11/04 14:23:42;;;;;;;10.23;2.63;;;;;;;;;;5094316;28;21788;-58
2021/11/04 14:26:08;;;;;;;7.68;2.47;;;;;;;;;;5096361;28;20039;-55
2021/11/04 14:28:34;;;;;;;6.70;3.00;;;;;;;;;;5096174;28;20067;-57
2021/11/04 14:31:00;;;;;;;5.85;2.58;;;;;;;;;;5096644;28;20613;-57
2021/11/04 14:33:26;;;;;;;5.38;2.00;;;;;;;;;;5074934;28;20032;-56
2021/11/04 14:35:51;;;;;;;5.38;2.45;;;;;;;;;;5096040;28;20112;-57
2021/11/04 14:38:17;;;;;;;14.85;2.45;;;;;;;;;;5091014;28;20078;-57
2021/11/04 14:40:45;;;;;;;6.45;2.65;;;;;;;;;;5095828;28;20106;-57
2021/11/04 14:43:11;;;;;;;11.45;2.80;;;;;;;;;;5098486;28;20055;-56
2021/11/04 14:45:37;;;;;;;6.38;2.78;;;;;;;;;;5096817;28;20240;-56